Birds, Illinois
Current Conditions -  °F | °C
As of 6:53 AM on Saturday 25 Oct 2014 (Local Time) from KLWV Reporting Station
Haze Haze  
Wind Chill: 54°   Ceiling: Unl
Heat Index: 54°   Visibility: 6mi
Dew Point: 52°   Wind: 6mph
Humidity: 93%   Direction: 200°SSW
Pressure: 30"   Gusts: NA
Location:  38.84°N, 87.67°W
Report Text: KLWV 251153Z AUTO 20005KT 6SM BR FEW049 12/11 A3000 RMK AO2 SLP156 T01220111 10133 20100 53003
Loading
Personal Weather Stations






























Interactive Weather Map
Tropical Storm Tracking
New forecast layout! Learn more

10-Day Weather Forecast

Advertisements
Track Severe Weather on mobile